Time;durP1;ratioP1;P1;durP2;ratioP2;P2;SDS_P1;SDS_P2;PMS_P1;PMS_P2;Temp;Humidity;BMP_temperature;BMP_pressure;BME280_temperature;BME280_humidity;BME280_pressure;Samples;Min_cycle;Max_cycle;Signal;HPM_P1;HPM_P2
2023/05/02 00:02:30;;;;;;;14.30;6.18;;;12.20;81.90;;;;;;4955732;29;20043;-88
2023/05/02 00:05:01;;;;;;;11.02;5.43;;;12.30;81.90;;;;;;4939697;29;20047;-87
2023/05/02 00:07:28;;;;;;;11.77;5.85;;;12.30;81.90;;;;;;4941969;29;20047;-88
2023/05/02 00:09:55;;;;;;;11.02;5.78;;;12.30;82.00;;;;;;4932404;28;20046;-88
2023/05/02 00:12:31;;;;;;;13.90;6.60;;;12.30;81.90;;;;;;4926407;29;20138;-89
2023/05/02 00:15:01;;;;;;;12.75;6.15;;;12.30;82.20;;;;;;4940153;29;20114;-88
2023/05/02 00:17:31;;;;;;;;;;;12.30;82.10;;;;;;4937426;29;20051;-89
2023/05/02 00:19:58;;;;;;;10.25;5.15;;;12.20;82.30;;;;;;4955595;29;19929;-88
2023/05/02 00:22:29;;;;;;;9.80;5.15;;;12.20;82.80;;;;;;4939960;29;20054;-88
2023/05/02 00:25:00;;;;;;;9.50;5.32;;;12.20;82.70;;;;;;4920714;29;20118;-88
2023/05/02 00:27:29;;;;;;;10.88;6.25;;;12.20;82.70;;;;;;4955057;29;20118;-87
2023/05/02 00:29:56;;;;;;;8.35;4.15;;;12.20;82.80;;;;;;4935992;29;20050;-87
2023/05/02 00:32:30;;;;;;;9.30;4.55;;;12.10;82.50;;;;;;4947756;29;20051;-88
2023/05/02 00:34:57;;;;;;;10.15;4.70;;;12.20;82.50;;;;;;4922529;29;20101;-88
2023/05/02 00:37:31;;;;;;;7.20;3.97;;;12.20;82.80;;;;;;4935964;29;20083;-88
2023/05/02 00:39:58;;;;;;;8.35;3.95;;;12.20;82.60;;;;;;4937663;29;20058;-88
2023/05/02 00:42:30;;;;;;;7.22;3.78;;;12.20;82.50;;;;;;4936361;29;20070;-88
2023/05/02 00:45:01;;;;;;;9.57;5.22;;;12.20;82.40;;;;;;4939128;29;20101;-88
2023/05/02 00:47:31;;;;;;;9.07;5.15;;;12.20;82.70;;;;;;4939599;29;20098;-87
2023/05/02 00:49:59;;;;;;;8.20;4.40;;;12.20;82.80;;;;;;4938990;29;20051;-88
2023/05/02 00:52:28;;;;;;;7.70;4.18;;;12.20;82.80;;;;;;4936038;29;20071;-91
2023/05/02 00:55:02;;;;;;;5.75;3.00;;;12.20;82.60;;;;;;4934992;29;20411;-92
2023/05/02 00:57:30;;;;;;;7.75;4.30;;;12.20;82.50;;;;;;4939869;29;20051;-92
2023/05/02 01:00:00;;;;;;;6.28;3.25;;;12.20;82.60;;;;;;4939524;29;20138;-92
2023/05/02 01:02:45;;;;;;;6.80;3.40;;;12.20;82.50;;;;;;4924550;29;20087;-91
2023/05/02 01:05:29;;;;;;;8.52;3.92;;;12.20;82.40;;;;;;4940157;29;20503;-92
2023/05/02 01:08:19;;;;;;;7.80;3.47;;;12.30;82.70;;;;;;4940148;29;20106;-92
2023/05/02 01:11:00;;;;;;;5.50;2.75;;;12.30;82.60;;;;;;4939732;29;20074;-92
2023/05/02 01:13:32;;;;;;;7.57;3.63;;;12.30;82.60;;;;;;4955341;29;20051;-91
2023/05/02 01:16:04;;;;;;;6.10;2.75;;;12.30;82.50;;;;;;4939840;29;20051;-92
2023/05/02 01:18:37;;;;;;;6.35;2.55;;;12.20;82.60;;;;;;4939344;29;20057;-92
2023/05/02 01:21:07;;;;;;;4.80;2.47;;;12.30;82.50;;;;;;4926767;29;20064;-93
2023/05/02 01:23:47;;;;;;;6.15;3.00;;;12.30;82.50;;;;;;4957840;28;20063;-92
2023/05/02 01:26:25;;;;;;;5.47;2.90;;;12.30;82.50;;;;;;4942934;29;20051;-92
2023/05/02 01:28:59;;;;;;;5.97;2.88;;;12.30;82.50;;;;;;4943266;29;20046;-92
2023/05/02 01:31:34;;;;;;;7.93;3.97;;;12.30;82.60;;;;;;4943250;29;20098;-92
2023/05/02 01:34:04;;;;;;;6.93;4.15;;;12.30;82.90;;;;;;4958905;29;20051;-91
2023/05/02 01:36:33;;;;;;;10.13;3.42;;;12.20;82.90;;;;;;4943329;29;20415;-92
2023/05/02 01:39:06;;;;;;;6.97;3.28;;;12.20;82.90;;;;;;4959285;29;20054;-92
2023/05/02 01:41:35;;;;;;;6.22;3.05;;;12.20;82.90;;;;;;4942907;29;20051;-92
2023/05/02 01:44:03;;;;;;;6.15;3.53;;;12.30;83.00;;;;;;4941597;29;20119;-92
2023/05/02 01:46:37;;;;;;;5.05;2.25;;;12.30;82.90;;;;;;4940601;29;20089;-92
2023/05/02 01:49:08;;;;;;;6.20;2.28;;;12.30;82.90;;;;;;4943203;29;20050;-92
2023/05/02 01:51:43;;;;;;;6.75;3.05;;;12.30;82.90;;;;;;4943397;29;20051;-91
2023/05/02 01:54:14;;;;;;;6.15;2.42;;;12.30;83.00;;;;;;4958872;29;20073;-92
2023/05/02 01:56:42;;;;;;;7.13;2.80;;;12.30;83.00;;;;;;4958709;29;20057;-92
2023/05/02 01:59:17;;;;;;;4.57;2.53;;;12.30;83.10;;;;;;4958752;29;20046;-92
2023/05/02 02:01:45;;;;;;;7.40;3.38;;;12.30;83.20;;;;;;4940456;29;20043;-92
2023/05/02 02:04:14;;;;;;;7.90;3.60;;;12.30;83.50;;;;;;4924148;29;20449;-91
2023/05/02 02:06:47;;;;;;;8.32;4.53;;;12.20;83.70;;;;;;4939431;29;20044;-91
2023/05/02 02:09:14;;;;;;;;;;;12.20;84.20;;;;;;4943526;29;20075;-91
2023/05/02 02:12:14;;;;;;;7.53;3.05;;;12.10;84.30;;;;;;4939438;29;20029;-91
2023/05/02 02:14:58;;;;;;;4.78;2.40;;;12.20;84.20;;;;;;4923619;29;20492;-92
2023/05/02 02:17:35;;;;;;;5.88;2.92;;;12.20;84.10;;;;;;4941095;29;20047;-91
2023/05/02 02:20:05;;;;;;;5.90;2.78;;;12.20;84.30;;;;;;4958509;29;20455;-91
2023/05/02 02:22:38;;;;;;;5.88;3.00;;;12.20;84.30;;;;;;4939004;29;20062;-92
2023/05/02 02:25:09;;;;;;;7.00;2.35;;;12.20;84.40;;;;;;4953273;29;20120;-92
2023/05/02 02:27:37;;;;;;;5.22;3.05;;;12.20;84.70;;;;;;4958622;29;20047;-92
2023/05/02 02:30:05;;;;;;;6.35;3.03;;;12.10;85.10;;;;;;4942340;29;20047;-92
2023/05/02 02:32:32;;;;;;;5.53;2.75;;;12.10;85.90;;;;;;4958096;29;20047;-92
2023/05/02 02:35:02;;;;;;;4.68;2.35;;;12.00;86.30;;;;;;4938898;29;20520;-92
2023/05/02 02:37:30;;;;;;;6.10;1.70;;;11.90;86.30;;;;;;4949520;29;20160;-92
2023/05/02 02:40:17;;;;;;;3.85;1.70;;;11.90;86.30;;;;;;4942065;29;20051;-92
2023/05/02 02:43:12;;;;;;;4.53;1.10;;;11.80;86.50;;;;;;4938504;29;20047;-92
2023/05/02 02:46:08;;;;;;;3.72;0.95;;;11.80;86.50;;;;;;4931223;29;20106;-92
2023/05/02 02:49:03;;;;;;;5.18;1.00;;;11.70;86.40;;;;;;4938864;29;20043;-92
2023/05/02 02:52:03;;;;;;;3.30;0.88;;;11.70;86.50;;;;;;4933365;29;20059;-92
2023/05/02 02:54:58;;;;;;;3.95;0.70;;;11.70;86.20;;;;;;4942623;29;20574;-92
2023/05/02 02:57:38;;;;;;;5.22;1.15;;;11.70;86.80;;;;;;4940591;29;20075;-91
2023/05/02 03:00:32;;;;;;;7.93;1.50;;;11.60;86.20;;;;;;4957672;28;20047;-91
2023/05/02 03:02:59;;;;;;;2.42;0.60;;;11.60;86.10;;;;;;4939180;29;20135;-91
2023/05/02 03:05:29;;;;;;;3.67;0.80;;;11.50;86.20;;;;;;4941548;29;20047;-91
2023/05/02 03:08:07;;;;;;;1.85;0.60;;;11.50;86.40;;;;;;4939441;29;20048;-91
2023/05/02 03:13:43;;;;;;;3.28;0.60;;;11.40;86.30;;;;;;5525410;23;20405;-91
2023/05/02 03:16:39;;;;;;;5.13;0.73;;;11.40;86.20;;;;;;4964782;28;20133;-86
2023/05/02 03:19:12;;;;;;;3.92;1.48;;;11.50;86.00;;;;;;4963464;28;20133;-86
2023/05/02 03:21:40;;;;;;;2.65;0.88;;;11.50;86.70;;;;;;4962278;28;20121;-86
2023/05/02 03:24:16;;;;;;;3.58;0.75;;;11.40;86.10;;;;;;4967446;28;20054;-86
2023/05/02 03:26:47;;;;;;;2.38;0.60;;;11.40;86.10;;;;;;4932362;28;20042;-86
2023/05/02 03:29:17;;;;;;;3.00;0.60;;;11.30;86.10;;;;;;4963485;28;20043;-86
2023/05/02 03:31:44;;;;;;;2.63;0.50;;;11.30;86.10;;;;;;4947033;28;20081;-86
2023/05/02 03:34:11;;;;;;;2.45;0.68;;;11.30;86.20;;;;;;4930999;28;20042;-87
2023/05/02 03:36:44;;;;;;;4.18;0.70;;;11.20;86.20;;;;;;4948205;28;20074;-86
2023/05/02 03:39:11;;;;;;;1.52;0.52;;;11.10;86.40;;;;;;4946701;28;20050;-86
2023/05/02 03:41:41;;;;;;;3.65;0.70;;;11.10;86.70;;;;;;4946949;28;20042;-87
2023/05/02 03:44:12;;;;;;;2.08;0.65;;;11.00;86.80;;;;;;4947848;28;20069;-87
2023/05/02 03:46:40;;;;;;;2.78;1.13;;;10.90;86.90;;;;;;4958272;28;20138;-86
2023/05/02 03:49:10;;;;;;;4.55;0.75;;;10.80;87.00;;;;;;4956240;28;20046;-86
2023/05/02 03:51:40;;;;;;;3.08;0.43;;;10.80;87.10;;;;;;4962372;28;20133;-87
2023/05/02 03:54:08;;;;;;;4.05;0.75;;;10.80;87.00;;;;;;4954604;28;20491;-86
2023/05/02 03:56:39;;;;;;;2.90;0.63;;;10.90;86.90;;;;;;4951816;28;20049;-86
2023/05/02 03:59:23;;;;;;;3.53;0.70;;;10.90;86.80;;;;;;4937411;28;20413;-87
2023/05/02 04:01:51;;;;;;;3.28;0.60;;;10.90;86.50;;;;;;4962346;28;20130;-86
2023/05/02 04:04:24;;;;;;;2.35;0.40;;;11.00;86.40;;;;;;4947298;28;20079;-87
2023/05/02 04:06:53;;;;;;;1.92;0.50;;;11.00;86.20;;;;;;4962233;28;20096;-87
2023/05/02 04:09:24;;;;;;;1.70;0.50;;;11.10;86.10;;;;;;4961736;28;20061;-87
2023/05/02 04:12:04;;;;;;;1.55;0.40;;;11.10;86.00;;;;;;4950080;28;20133;-87
2023/05/02 04:14:33;;;;;;;2.00;0.60;;;11.00;86.00;;;;;;4967005;28;20050;-87
2023/05/02 04:17:01;;;;;;;3.70;0.60;;;11.00;86.10;;;;;;4958551;28;20065;-87
2023/05/02 04:19:39;;;;;;;2.97;0.50;;;10.90;86.40;;;;;;4945337;28;20121;-86
2023/05/02 04:22:07;;;;;;;2.42;0.40;;;10.80;86.60;;;;;;4960511;28;20139;-87
2023/05/02 04:24:39;;;;;;;4.47;0.70;;;10.70;86.60;;;;;;4943715;28;20047;-87
2023/05/02 04:27:06;;;;;;;1.48;0.40;;;10.70;86.60;;;;;;4955610;28;20051;-87
2023/05/02 04:29:34;;;;;;;1.25;0.40;;;10.80;86.60;;;;;;4941373;28;20050;-87
2023/05/02 04:32:04;;;;;;;3.90;0.60;;;10.80;86.30;;;;;;4950205;28;20133;-86
2023/05/02 04:34:31;;;;;;;2.95;0.60;;;10.90;86.20;;;;;;4938771;28;20138;-87
2023/05/02 04:37:00;;;;;;;5.57;0.68;;;10.90;86.10;;;;;;4965804;28;20138;-86
2023/05/02 04:39:30;;;;;;;2.15;0.40;;;11.00;85.90;;;;;;4954697;28;20511;-87
2023/05/02 04:42:09;;;;;;;1.73;0.40;;;11.00;85.70;;;;;;4954052;28;20144;-86
2023/05/02 04:44:48;;;;;;;0.90;0.30;;;11.00;85.50;;;;;;5003583;28;20105;-86
2023/05/02 04:47:16;;;;;;;1.75;0.32;;;11.10;85.50;;;;;;4973820;28;20043;-87
2023/05/02 04:49:44;;;;;;;1.73;0.65;;;11.10;85.30;;;;;;4974504;28;20046;-87
2023/05/02 04:52:11;;;;;;;1.00;0.38;;;11.10;85.20;;;;;;4985463;28;20051;-86
2023/05/02 04:54:43;;;;;;;4.03;0.40;;;11.10;85.00;;;;;;4958164;28;20502;-86
2023/05/02 04:57:13;;;;;;;2.97;0.50;;;11.10;84.80;;;;;;4942188;28;20055;-86
2023/05/02 04:59:45;;;;;;;2.17;0.52;;;11.10;84.70;;;;;;4958408;28;20043;-87
2023/05/02 05:02:12;;;;;;;1.85;0.43;;;11.00;84.40;;;;;;4941845;28;20125;-87
2023/05/02 05:04:40;;;;;;;1.50;0.30;;;11.10;84.40;;;;;;4941670;28;20065;-86
2023/05/02 05:07:07;;;;;;;2.38;0.30;;;11.10;84.30;;;;;;4942089;28;20129;-86
2023/05/02 05:09:34;;;;;;;1.80;0.38;;;11.10;84.20;;;;;;4941926;28;20446;-86
2023/05/02 05:12:01;;;;;;;1.70;0.45;;;11.10;84.00;;;;;;4942356;28;20513;-86
2023/05/02 05:14:31;;;;;;;2.78;0.57;;;11.10;83.90;;;;;;4958059;28;20050;-87
2023/05/02 05:16:58;;;;;;;1.55;0.30;;;11.10;83.70;;;;;;4974198;28;20047;-87
2023/05/02 05:19:26;;;;;;;2.83;0.43;;;11.10;83.50;;;;;;4973417;28;20074;-87
2023/05/02 05:21:55;;;;;;;2.58;0.40;;;11.10;83.40;;;;;;4942179;28;20090;-86
2023/05/02 05:24:28;;;;;;;1.42;0.38;;;11.10;83.30;;;;;;4954059;28;20051;-87
2023/05/02 05:27:00;;;;;;;2.08;0.57;;;11.10;83.10;;;;;;4942200;28;20081;-86
2023/05/02 05:29:30;;;;;;;2.72;0.43;;;11.10;82.80;;;;;;4990590;28;20074;-86
2023/05/02 05:31:59;;;;;;;2.25;0.40;;;11.10;82.60;;;;;;4985271;28;20499;-86
2023/05/02 05:34:28;;;;;;;4.25;1.10;;;11.10;82.60;;;;;;4957706;28;20081;-87
2023/05/02 05:36:59;;;;;;;3.33;0.40;;;11.10;82.20;;;;;;4973682;28;20133;-87
2023/05/02 05:39:26;;;;;;;3.05;0.45;;;11.10;82.20;;;;;;4942316;28;20053;-87
2023/05/02 05:41:56;;;;;;;3.63;0.43;;;11.10;82.20;;;;;;4957648;28;20491;-87
2023/05/02 05:44:26;;;;;;;1.45;0.63;;;11.10;82.00;;;;;;4957867;28;20039;-86
2023/05/02 05:46:55;;;;;;;2.78;0.60;;;11.20;81.90;;;;;;4942325;28;20066;-87
2023/05/02 05:49:25;;;;;;;3.28;0.57;;;11.10;81.80;;;;;;4942511;28;20082;-86
2023/05/02 05:51:53;;;;;;;2.90;0.77;;;11.10;81.80;;;;;;4957476;28;20510;-84
2023/05/02 05:54:20;;;;;;;2.10;0.35;;;11.20;81.80;;;;;;4941086;28;20047;-84
2023/05/02 05:56:47;;;;;;;1.95;0.50;;;11.20;81.60;;;;;;4956691;28;20422;-84
2023/05/02 05:59:17;;;;;;;2.65;0.68;;;11.20;81.50;;;;;;4941825;28;20058;-83
2023/05/02 06:01:44;;;;;;;2.97;0.50;;;11.30;81.30;;;;;;4989004;28;20098;-84
2023/05/02 06:04:16;;;;;;;2.80;0.57;;;11.30;81.20;;;;;;4941313;28;20050;-86
2023/05/02 06:06:47;;;;;;;2.58;1.02;;;11.20;81.00;;;;;;4954711;28;20139;-84
2023/05/02 06:09:14;;;;;;;2.60;0.50;;;11.20;80.90;;;;;;4946098;28;20043;-83
2023/05/02 06:11:41;;;;;;;4.22;0.88;;;11.20;80.80;;;;;;4960296;28;20047;-84
2023/05/02 06:14:09;;;;;;;1.92;0.60;;;11.20;80.70;;;;;;4960553;28;20062;-84
2023/05/02 06:16:38;;;;;;;2.78;0.60;;;11.20;80.70;;;;;;4956947;28;20055;-84
2023/05/02 06:19:05;;;;;;;4.30;1.08;;;11.20;80.60;;;;;;4976905;28;20047;-84
2023/05/02 06:21:34;;;;;;;4.05;0.90;;;11.20;80.50;;;;;;4960592;28;20047;-85
2023/05/02 06:24:02;;;;;;;3.90;0.73;;;11.20;80.40;;;;;;4960064;28;20109;-85
2023/05/02 06:26:29;;;;;;;3.08;0.80;;;11.20;80.40;;;;;;4945760;28;20034;-84
2023/05/02 06:28:56;;;;;;;3.22;0.70;;;11.10;80.30;;;;;;4928814;28;20043;-84
2023/05/02 06:31:23;;;;;;;4.68;0.80;;;11.10;80.40;;;;;;4960590;28;20042;-84
2023/05/02 06:33:51;;;;;;;2.95;0.65;;;11.10;80.30;;;;;;4986296;28;20051;-84
2023/05/02 06:36:18;;;;;;;7.03;1.15;;;11.20;80.20;;;;;;4960109;28;20053;-84
2023/05/02 06:38:47;;;;;;;5.05;1.42;;;11.20;79.80;;;;;;4960495;28;20511;-88
2023/05/02 06:41:14;;;;;;;4.47;0.70;;;11.20;79.70;;;;;;4960103;28;20050;-87
2023/05/02 06:43:44;;;;;;;2.38;0.82;;;11.20;79.60;;;;;;4944863;28;20125;-88
2023/05/02 06:46:11;;;;;;;3.95;0.90;;;11.30;79.50;;;;;;4976316;28;20058;-87
2023/05/02 06:48:38;;;;;;;2.85;0.85;;;11.40;79.30;;;;;;4959918;28;20043;-85
2023/05/02 06:51:05;;;;;;;5.25;0.77;;;11.30;79.00;;;;;;4959605;28;20049;-84
2023/05/02 06:53:33;;;;;;;4.55;0.70;;;11.30;79.00;;;;;;4959609;28;20046;-86
2023/05/02 06:56:00;;;;;;;3.60;0.73;;;11.30;79.00;;;;;;4976105;28;20051;-87
2023/05/02 06:58:30;;;;;;;3.33;0.70;;;11.40;78.90;;;;;;4976088;28;20058;-89
2023/05/02 07:00:57;;;;;;;3.90;0.80;;;11.50;78.70;;;;;;4975642;28;20050;-85
2023/05/02 07:03:24;;;;;;;8.23;0.82;;;11.50;78.40;;;;;;4957122;28;20105;-85
2023/05/02 07:05:51;;;;;;;3.65;0.60;;;11.50;78.10;;;;;;4959809;28;20058;-85
2023/05/02 07:08:21;;;;;;;2.58;0.70;;;11.60;77.90;;;;;;4943913;28;20043;-85
2023/05/02 07:10:49;;;;;;;3.28;0.90;;;11.60;77.70;;;;;;4975523;28;20042;-86
2023/05/02 07:13:19;;;;;;;2.25;0.40;;;11.70;77.60;;;;;;4943709;28;20077;-85
2023/05/02 07:15:46;;;;;;;3.70;0.70;;;11.70;77.40;;;;;;4943632;28;20053;-86
2023/05/02 07:18:13;;;;;;;3.22;0.50;;;11.80;77.00;;;;;;4975467;28;20105;-86
2023/05/02 07:20:41;;;;;;;2.25;0.40;;;11.80;76.90;;;;;;4942521;28;20050;-87
2023/05/02 07:23:08;;;;;;;2.15;0.30;;;11.90;76.90;;;;;;4943471;28;20039;-85
2023/05/02 07:25:36;;;;;;;3.60;0.50;;;12.00;77.30;;;;;;4943278;28;20101;-86
2023/05/02 07:28:04;;;;;;;2.95;0.50;;;12.00;76.30;;;;;;4960328;28;20050;-87
2023/05/02 07:30:31;;;;;;;1.38;0.35;;;12.00;76.20;;;;;;4944835;28;20078;-86
2023/05/02 07:32:58;;;;;;;3.20;0.40;;;12.10;76.10;;;;;;4961098;28;20161;-86
2023/05/02 07:35:26;;;;;;;4.13;0.55;;;12.10;75.80;;;;;;4970441;28;20069;-86
2023/05/02 07:37:54;;;;;;;7.15;1.38;;;12.10;75.70;;;;;;4974672;28;20047;-88
2023/05/02 07:40:21;;;;;;;2.38;0.40;;;12.10;75.30;;;;;;4943099;28;20586;-87
2023/05/02 07:42:49;;;;;;;1.88;0.50;;;12.00;75.30;;;;;;4955407;28;20143;-86
2023/05/02 07:45:17;;;;;;;1.65;0.68;;;12.00;75.30;;;;;;4934287;28;20043;-85
2023/05/02 07:47:45;;;;;;;2.88;0.40;;;12.10;75.00;;;;;;4972368;28;20054;-86
2023/05/02 07:50:12;;;;;;;2.28;0.55;;;12.10;74.40;;;;;;4958425;28;20175;-86
2023/05/02 07:52:39;;;;;;;4.57;0.50;;;12.00;73.80;;;;;;4974834;28;20465;-86
2023/05/02 07:55:07;;;;;;;3.08;0.70;;;12.00;74.00;;;;;;4942702;28;20043;-87
2023/05/02 07:57:34;;;;;;;4.35;0.52;;;12.00;73.70;;;;;;4943068;28;20055;-87
2023/05/02 08:00:01;;;;;;;4.28;1.25;;;12.00;73.70;;;;;;4942419;28;20137;-87
2023/05/02 08:02:40;;;;;;;3.80;0.60;;;11.90;73.70;;;;;;4974995;28;20047;-88
2023/05/02 08:05:07;;;;;;;2.67;0.63;;;11.80;73.80;;;;;;4942852;28;20047;-88
2023/05/02 08:07:35;;;;;;;4.22;0.70;;;11.70;74.20;;;;;;4961882;28;20089;-86
2023/05/02 08:10:07;;;;;;;3.88;0.63;;;11.60;74.40;;;;;;4939551;29;20049;-87
2023/05/02 08:12:41;;;;;;;1.58;0.30;;;11.60;74.40;;;;;;4940763;28;20055;-87
2023/05/02 08:15:12;;;;;;;4.03;0.55;;;11.60;74.40;;;;;;4986799;28;20466;-86
2023/05/02 08:17:39;;;;;;;3.00;0.65;;;11.60;74.30;;;;;;4973454;28;20045;-87
2023/05/02 08:20:07;;;;;;;2.20;0.70;;;11.70;74.20;;;;;;4958073;28;20046;-86
2023/05/02 08:22:34;;;;;;;2.05;0.40;;;11.80;73.90;;;;;;4945495;28;20047;-88
2023/05/02 08:25:06;;;;;;;1.65;0.40;;;12.00;73.60;;;;;;4945002;28;20039;-89
2023/05/02 08:27:34;;;;;;;2.22;0.40;;;12.10;73.10;;;;;;4961100;28;20047;-88
2023/05/02 08:30:01;;;;;;;2.42;0.30;;;12.20;72.90;;;;;;4954545;28;20055;-88
2023/05/02 08:32:30;;;;;;;1.63;0.30;;;12.30;72.60;;;;;;4940557;28;20042;-86
2023/05/02 08:34:58;;;;;;;1.90;0.30;;;12.50;72.20;;;;;;4974307;28;20047;-86
2023/05/02 08:37:28;;;;;;;2.78;0.70;;;12.70;71.80;;;;;;4958340;28;20061;-86
2023/05/02 08:39:55;;;;;;;2.92;0.63;;;12.80;71.40;;;;;;4958077;28;20055;-86
2023/05/02 08:42:22;;;;;;;0.55;0.20;;;12.90;71.10;;;;;;4958243;28;20047;-88
2023/05/02 08:44:50;;;;;;;2.47;0.20;;;12.90;70.70;;;;;;4990061;28;20047;-88
2023/05/02 08:47:18;;;;;;;2.38;0.40;;;12.90;70.60;;;;;;4958129;28;20047;-86
2023/05/02 08:49:46;;;;;;;3.47;0.60;;;13.00;70.10;;;;;;4957888;28;20046;-86
2023/05/02 08:52:15;;;;;;;1.40;0.40;;;13.00;69.50;;;;;;4938820;28;20050;-88
2023/05/02 08:54:43;;;;;;;2.40;0.30;;;13.10;69.40;;;;;;4950284;28;20051;-86
2023/05/02 08:57:10;;;;;;;0.98;0.30;;;13.40;68.90;;;;;;4957424;28;20097;-85
2023/05/02 08:59:38;;;;;;;2.00;0.57;;;13.50;68.40;;;;;;4989493;28;20105;-87
2023/05/02 09:02:19;;;;;;;1.58;0.20;;;13.70;68.10;;;;;;4957303;28;20058;-88
2023/05/02 09:04:53;;;;;;;1.55;0.35;;;13.80;67.70;;;;;;4957609;28;20043;-88
2023/05/02 09:07:20;;;;;;;1.63;0.28;;;13.80;67.60;;;;;;4957587;28;20070;-86
2023/05/02 09:09:48;;;;;;;1.75;0.30;;;13.60;67.30;;;;;;4957667;28;20133;-87
2023/05/02 09:12:15;;;;;;;4.65;0.30;;;13.60;67.50;;;;;;4941799;28;20142;-87
2023/05/02 09:14:43;;;;;;;2.45;0.30;;;13.40;67.40;;;;;;4957400;28;20521;-85
2023/05/02 09:17:13;;;;;;;1.55;0.40;;;13.40;68.20;;;;;;4970276;28;20051;-86
2023/05/02 09:19:41;;;;;;;2.28;0.40;;;13.60;67.50;;;;;;4938246;28;20062;-86
2023/05/02 09:22:08;;;;;;;2.35;0.25;;;13.70;66.70;;;;;;4955303;28;20055;-86
2023/05/02 09:24:37;;;;;;;1.30;0.20;;;13.70;66.80;;;;;;4974136;28;20045;-89
2023/05/02 09:27:04;;;;;;;2.65;0.70;;;13.90;66.40;;;;;;4957693;28;20129;-90
2023/05/02 09:29:37;;;;;;;2.05;0.68;;;13.90;66.10;;;;;;4959639;28;20042;-89
2023/05/02 09:32:05;;;;;;;3.08;0.45;;;13.80;65.30;;;;;;4985108;28;20050;-87
2023/05/02 09:34:33;;;;;;;1.83;0.40;;;13.80;65.60;;;;;;4957077;28;20057;-86
2023/05/02 09:37:02;;;;;;;1.42;0.32;;;13.70;65.20;;;;;;4941431;28;20053;-88
2023/05/02 09:39:30;;;;;;;1.60;0.30;;;13.70;64.90;;;;;;4957306;28;20046;-87
2023/05/02 09:41:58;;;;;;;2.33;0.40;;;13.60;64.40;;;;;;4981605;28;20490;-86
2023/05/02 09:44:34;;;;;;;3.65;0.30;;;13.50;64.20;;;;;;4975329;28;20549;-86
2023/05/02 09:47:02;;;;;;;3.28;0.60;;;13.60;64.30;;;;;;4992560;28;20483;-85
2023/05/02 09:49:40;;;;;;;1.23;0.20;;;13.90;63.70;;;;;;4960256;28;20046;-86
2023/05/02 09:52:25;;;;;;;2.25;0.32;;;14.30;63.10;;;;;;4954125;28;20131;-85
2023/05/02 09:54:55;;;;;;;2.88;0.50;;;14.50;62.40;;;;;;4979584;28;20039;-86
2023/05/02 09:57:39;;;;;;;1.98;0.35;;;14.60;61.90;;;;;;4960208;28;20106;-84
2023/05/02 10:00:07;;;;;;;1.75;0.30;;;14.70;61.40;;;;;;4944375;28;20051;-85
2023/05/02 10:02:39;;;;;;;;;;;14.50;61.10;;;;;;4961244;28;20050;-84
2023/05/02 10:05:09;;;;;;;2.15;0.60;;;14.30;61.90;;;;;;4975980;28;19922;-84
2023/05/02 10:07:36;;;;;;;0.90;0.30;;;14.30;61.90;;;;;;4943618;28;20558;-83
2023/05/02 10:10:05;;;;;;;1.13;0.22;;;14.30;62.40;;;;;;4959538;28;20039;-83
2023/05/02 10:12:33;;;;;;;1.10;0.30;;;14.50;61.50;;;;;;4969523;28;20043;-85
2023/05/02 10:15:04;;;;;;;1.33;0.30;;;14.60;61.10;;;;;;4941194;28;20110;-87
2023/05/02 10:17:41;;;;;;;1.05;0.40;;;14.80;60.40;;;;;;4964966;28;20056;-89
2023/05/02 10:20:15;;;;;;;0.80;0.40;;;15.10;60.10;;;;;;4976113;28;20166;-86
2023/05/02 10:22:44;;;;;;;1.33;0.30;;;14.90;59.00;;;;;;4975713;28;20057;-85
2023/05/02 10:25:12;;;;;;;1.40;0.40;;;14.70;60.10;;;;;;4975546;28;20039;-84
2023/05/02 10:27:39;;;;;;;1.45;0.40;;;14.60;59.70;;;;;;4954792;28;20454;-84
2023/05/02 10:30:08;;;;;;;1.13;0.30;;;14.70;59.50;;;;;;4944236;28;20101;-87
2023/05/02 10:32:37;;;;;;;2.85;0.77;;;14.90;58.70;;;;;;4960075;28;20490;-87
2023/05/02 10:35:07;;;;;;;2.17;0.55;;;15.30;58.20;;;;;;4959111;28;20050;-83
2023/05/02 10:37:38;;;;;;;4.90;0.57;;;15.50;56.80;;;;;;4951424;28;20513;-79
2023/05/02 10:40:12;;;;;;;2.95;0.60;;;15.30;56.20;;;;;;4961401;28;20899;-82
2023/05/02 10:42:46;;;;;;;2.83;0.50;;;15.40;56.80;;;;;;4973203;28;20153;-83
2023/05/02 10:45:30;;;;;;;3.78;0.40;;;15.60;56.10;;;;;;4959413;28;20046;-89
2023/05/02 10:48:24;;;;;;;2.00;0.40;;;15.90;55.50;;;;;;4959383;28;20042;-85
2023/05/02 10:50:56;;;;;;;4.88;0.60;;;16.00;54.50;;;;;;4956462;28;20053;-86
2023/05/02 10:53:30;;;;;;;4.03;0.47;;;16.20;54.10;;;;;;4972001;28;20545;-87
2023/05/02 10:56:20;;;;;;;2.30;0.52;;;16.40;53.80;;;;;;4959379;28;20042;-89
2023/05/02 10:58:49;;;;;;;1.85;0.50;;;16.80;53.50;;;;;;4975021;28;20043;-90
2023/05/02 11:01:29;;;;;;;1.60;0.40;;;16.90;53.00;;;;;;4959227;28;20043;-84
2023/05/02 11:04:01;;;;;;;4.28;0.70;;;17.00;52.30;;;;;;4958807;28;20046;-87
2023/05/02 11:06:33;;;;;;;4.07;0.55;;;16.80;51.30;;;;;;4975381;28;20047;-90
2023/05/02 11:09:13;;;;;;;1.85;0.50;;;16.60;51.00;;;;;;4975610;28;20047;-90
2023/05/02 11:11:45;;;;;;;2.08;0.50;;;16.70;51.00;;;;;;4975644;28;20043;-90
2023/05/02 11:14:37;;;;;;;2.20;0.50;;;16.90;51.00;;;;;;4959108;28;20063;-85
2023/05/02 11:17:06;;;;;;;1.63;0.50;;;17.10;50.30;;;;;;4990890;28;20050;-87
2023/05/02 11:19:37;;;;;;;1.17;0.30;;;16.60;50.60;;;;;;4959076;28;20134;-85
2023/05/02 11:22:19;;;;;;;3.15;0.40;;;16.70;51.50;;;;;;4974051;28;20127;-84
2023/05/02 11:24:47;;;;;;;;;;;17.20;51.20;;;;;;4974541;28;20047;-84
2023/05/02 11:27:29;;;;;;;1.40;0.30;;;17.10;51.10;;;;;;4974418;28;19948;-84
2023/05/02 11:30:01;;;;;;;1.35;0.40;;;17.30;51.20;;;;;;4959140;28;20060;-83
2023/05/02 11:32:48;;;;;;;2.10;0.40;;;17.50;50.70;;;;;;4973708;28;20051;-83
2023/05/02 11:35:17;;;;;;;3.10;0.40;;;17.70;50.20;;;;;;4950728;28;20046;-83
2023/05/02 11:38:04;;;;;;;2.28;0.50;;;17.80;49.80;;;;;;4973603;28;20038;-83
2023/05/02 11:40:31;;;;;;;1.83;0.50;;;17.80;49.40;;;;;;4954365;28;20057;-84
2023/05/02 11:43:10;;;;;;;2.05;0.63;;;17.90;49.00;;;;;;4969002;28;20129;-83
2023/05/02 11:45:44;;;;;;;2.28;0.65;;;18.00;48.20;;;;;;4967276;28;20057;-84
2023/05/02 11:48:13;;;;;;;2.78;0.65;;;18.00;48.10;;;;;;4976581;28;20034;-83
2023/05/02 11:50:47;;;;;;;3.20;0.95;;;18.00;48.10;;;;;;4958661;28;20046;-88
2023/05/02 11:53:25;;;;;;;2.92;0.68;;;17.90;47.50;;;;;;4991109;28;20074;-89
2023/05/02 11:55:54;;;;;;;3.67;0.82;;;18.00;47.10;;;;;;4957852;28;20570;-85
2023/05/02 11:58:23;;;;;;;1.80;0.60;;;18.00;47.30;;;;;;4941532;28;20049;-83
2023/05/02 12:00:52;;;;;;;1.73;0.50;;;18.20;47.20;;;;;;4973425;28;20137;-84
2023/05/02 12:03:28;;;;;;;3.22;0.68;;;17.90;47.10;;;;;;4989805;28;20073;-85
2023/05/02 12:05:56;;;;;;;3.42;0.70;;;17.90;47.20;;;;;;4957333;28;20129;-85
2023/05/02 12:08:26;;;;;;;3.17;0.85;;;18.00;47.10;;;;;;4951766;28;20074;-85
2023/05/02 12:10:56;;;;;;;3.97;0.43;;;18.00;47.00;;;;;;4954411;28;20051;-85
2023/05/02 12:13:26;;;;;;;3.63;0.60;;;18.20;47.20;;;;;;4923323;28;20051;-85
2023/05/02 12:15:55;;;;;;;3.15;0.77;;;18.50;46.80;;;;;;4973363;28;20146;-84
2023/05/02 12:18:23;;;;;;;3.88;0.73;;;18.70;46.60;;;;;;4941568;28;20459;-85
2023/05/02 12:20:53;;;;;;;3.00;0.60;;;18.90;46.60;;;;;;4941441;28;20047;-85
2023/05/02 12:23:22;;;;;;;1.33;0.50;;;19.10;46.70;;;;;;4925979;28;20138;-85
2023/05/02 12:25:49;;;;;;;2.78;0.50;;;19.30;46.60;;;;;;4941304;28;20110;-85
2023/05/02 12:28:18;;;;;;;2.60;0.57;;;19.60;46.80;;;;;;4953848;28;20044;-85
2023/05/02 12:30:50;;;;;;;3.58;0.52;;;19.90;46.60;;;;;;4938245;28;20035;-85
2023/05/02 12:33:17;;;;;;;2.13;0.40;;;20.40;46.30;;;;;;4940199;28;20065;-85
2023/05/02 12:35:48;;;;;;;2.00;0.60;;;20.60;45.90;;;;;;4941202;28;20050;-85
2023/05/02 12:38:22;;;;;;;2.45;0.70;;;20.30;45.70;;;;;;4940867;28;20479;-84
2023/05/02 12:40:51;;;;;;;2.70;0.50;;;19.90;46.10;;;;;;4957231;28;20137;-83
2023/05/02 12:43:20;;;;;;;2.47;0.50;;;19.70;46.70;;;;;;4941016;28;20054;-86
2023/05/02 12:45:49;;;;;;;3.70;0.70;;;20.10;46.10;;;;;;4956906;28;20035;-88
2023/05/02 12:48:23;;;;;;;4.10;0.63;;;20.20;45.20;;;;;;4956542;28;20050;-82
2023/05/02 12:50:52;;;;;;;2.15;0.57;;;20.50;45.00;;;;;;4956800;28;20050;-81
2023/05/02 12:53:42;;;;;;;4.47;0.68;;;20.90;44.40;;;;;;4940768;28;20198;-83
2023/05/02 12:56:10;;;;;;;5.15;0.80;;;21.10;44.00;;;;;;4941123;28;20495;-86
2023/05/02 12:58:45;;;;;;;1.27;0.40;;;21.50;44.20;;;;;;4956151;28;20045;-85
2023/05/02 13:01:18;;;;;;;3.75;0.75;;;22.00;43.40;;;;;;4924998;28;20466;-86
2023/05/02 13:03:49;;;;;;;2.47;0.60;;;21.80;43.20;;;;;;4942232;28;20052;-86
2023/05/02 13:06:20;;;;;;;4.40;1.30;;;21.90;43.30;;;;;;4948513;28;20047;-86
2023/05/02 13:08:47;;;;;;;1.75;0.60;;;22.10;42.30;;;;;;4960112;28;20043;-89
2023/05/02 13:11:14;;;;;;;2.50;0.90;;;22.10;42.70;;;;;;4940768;28;20049;-89
2023/05/02 13:13:41;;;;;;;5.80;1.13;;;22.30;42.50;;;;;;4965296;28;20101;-86